Time,TemperatureF,DewpointF,PressureIn,WindDirection,WindDirectionDegrees,WindSpeedMPH,WindSpeedGustMPH,Humidity,HourlyPrecipIn,Conditions,Clouds,dailyrainin,SoftwareType,DateUTC
2013-10-09 00:02:00,41.8,37.5,29.16,North,0,0.4,1.8,85,0.00,,,0.00,WUHU216HW,2013-10-09 07:02:00,
2013-10-09 00:07:00,41.4,36.9,29.16,SW,225,0.4,1.8,84,0.00,,,0.00,WUHU216HW,2013-10-09 07:07:00,
2013-10-09 00:12:00,40.7,36.2,29.16,WNW,293,1.1,2.0,84,0.00,,,0.00,WUHU216HW,2013-10-09 07:12:00,
2013-10-09 00:17:00,40.5,36.0,29.17,ESE,113,0.4,2.0,84,0.00,,,0.00,WUHU216HW,2013-10-09 07:17:00,
2013-10-09 00:22:00,40.1,35.6,29.17,NNE,23,0.0,0.9,84,0.00,,,0.00,WUHU216HW,2013-10-09 07:22:00,
2013-10-09 00:27:00,40.0,35.8,29.17,ENE,68,0.0,1.8,85,0.00,,,0.00,WUHU216HW,2013-10-09 07:27:00,
2013-10-09 00:32:00,40.0,36.1,29.17,SSW,203,1.8,1.8,86,0.00,,,0.00,WUHU216HW,2013-10-09 07:32:00,
2013-10-09 00:37:00,39.8,35.9,29.17,SE,135,1.8,1.8,86,0.00,,,0.00,WUHU216HW,2013-10-09 07:37:00,
2013-10-09 00:42:00,40.3,36.7,29.17,NNE,23,0.0,1.8,87,0.00,,,0.00,WUHU216HW,2013-10-09 07:42:00,
2013-10-09 00:47:00,40.9,37.3,29.18,North,0,0.4,1.8,87,0.00,,,0.00,WUHU216HW,2013-10-09 07:47:00,
2013-10-09 00:52:00,41.0,37.5,29.18,North,0,1.3,1.8,87,0.00,,,0.00,WUHU216HW,2013-10-09 07:52:00,
2013-10-09 00:57:00,41.8,37.8,29.18,North,0,0.2,2.5,86,0.00,,,0.00,WUHU216HW,2013-10-09 07:57:00,
2013-10-09 01:02:00,42.1,37.9,29.18,NNE,23,0.9,2.9,85,0.00,,,0.00,WUHU216HW,2013-10-09 08:02:00,
2013-10-09 01:07:00,42.1,37.9,29.18,NW,315,1.6,2.9,85,0.00,,,0.00,WUHU216HW,2013-10-09 08:07:00,
2013-10-09 01:12:00,41.9,37.7,29.18,NNW,338,1.6,1.6,85,0.00,,,0.00,WUHU216HW,2013-10-09 08:12:00,
2013-10-09 01:17:00,41.9,37.7,29.18,North,0,1.1,1.6,85,0.00,,,0.00,WUHU216HW,2013-10-09 08:17:00,
2013-10-09 01:22:00,41.9,37.7,29.18,NNW,338,1.1,1.6,85,0.00,,,0.00,WUHU216HW,2013-10-09 08:22:00,
2013-10-09 01:27:00,41.9,37.7,29.18,NNE,23,0.0,1.6,85,0.00,,,0.00,WUHU216HW,2013-10-09 08:27:00,
2013-10-09 01:32:00,41.9,37.7,29.19,North,0,0.9,1.6,85,0.00,,,0.00,WUHU216HW,2013-10-09 08:32:00,
2013-10-09 01:37:00,42.1,37.9,29.19,NNW,338,0.0,1.6,85,0.00,,,0.00,WUHU216HW,2013-10-09 08:37:00,
2013-10-09 01:42:00,41.9,37.7,29.19,NNW,338,0.2,0.9,85,0.00,,,0.00,WUHU216HW,2013-10-09 08:42:00,
2013-10-09 01:47:00,41.9,37.7,29.19,NNW,338,0.4,0.7,85,0.00,,,0.00,WUHU216HW,2013-10-09 08:47:00,
2013-10-09 01:52:00,42.1,37.9,29.19,NNW,338,2.5,2.5,85,0.00,,,0.00,WUHU216HW,2013-10-09 08:52:00,
2013-10-09 01:57:00,42.3,38.1,29.20,North,0,0.2,2.5,85,0.00,,,0.00,WUHU216HW,2013-10-09 08:57:00,
2013-10-09 02:02:00,42.5,38.3,29.20,NNW,338,0.4,1.8,85,0.00,,,0.00,WUHU216HW,2013-10-09 09:02:00,
2013-10-09 02:07:00,42.5,38.3,29.20,NW,315,1.6,1.8,85,0.00,,,0.00,WUHU216HW,2013-10-09 09:07:00,
2013-10-09 02:12:00,42.8,38.4,29.20,NW,315,0.7,2.7,84,0.00,,,0.00,WUHU216HW,2013-10-09 09:12:00,
2013-10-09 02:17:00,43.0,37.9,29.21,NNW,338,1.1,3.4,82,0.00,,,0.00,WUHU216HW,2013-10-09 09:17:00,
2013-10-09 02:22:00,43.2,38.3,29.21,NNW,338,1.1,3.4,83,0.00,,,0.00,WUHU216HW,2013-10-09 09:22:00,
2013-10-09 02:27:00,43.0,37.9,29.21,NNW,338,1.6,3.1,82,0.00,,,0.00,WUHU216HW,2013-10-09 09:27:00,
2013-10-09 02:32:00,43.2,37.7,29.21,ENE,68,2.5,3.1,81,0.00,,,0.00,WUHU216HW,2013-10-09 09:32:00,
2013-10-09 02:37:00,43.6,38.1,29.21,ENE,68,2.0,2.5,81,0.00,,,0.00,WUHU216HW,2013-10-09 09:37:00,
2013-10-09 02:42:00,43.6,37.8,29.21,NE,45,0.9,2.0,80,0.00,,,0.00,WUHU216HW,2013-10-09 09:42:00,
2013-10-09 02:47:00,43.6,37.8,29.21,NNW,338,0.9,1.8,80,0.00,,,0.00,WUHU216HW,2013-10-09 09:47:00,
2013-10-09 02:52:00,43.2,37.4,29.21,North,0,0.4,1.8,80,0.00,,,0.00,WUHU216HW,2013-10-09 09:52:00,
2013-10-09 02:57:00,42.8,37.1,29.21,ENE,68,0.2,1.8,80,0.00,,,0.00,WUHU216HW,2013-10-09 09:57:00,
2013-10-09 03:02:00,42.3,36.8,29.21,North,0,0.4,1.1,81,0.00,,,0.00,WUHU216HW,2013-10-09 10:02:00,
2013-10-09 03:07:00,42.3,36.8,29.21,NNW,338,2.7,2.7,81,0.00,,,0.00,WUHU216HW,2013-10-09 10:07:00,
2013-10-09 03:12:00,42.5,37.0,29.22,ENE,68,1.8,2.7,81,0.00,,,0.00,WUHU216HW,2013-10-09 10:12:00,
2013-10-09 03:17:00,42.1,36.6,29.22,NNW,338,0.2,2.5,81,0.00,,,0.00,WUHU216HW,2013-10-09 10:17:00,
2013-10-09 03:22:00,41.8,36.6,29.22,NNW,338,1.8,2.2,82,0.00,,,0.00,WUHU216HW,2013-10-09 10:22:00,
2013-10-09 03:27:00,41.6,36.5,29.22,NW,315,0.9,1.8,82,0.00,,,0.00,WUHU216HW,2013-10-09 10:27:00,
2013-10-09 03:32:00,41.0,35.9,29.22,NW,315,0.4,2.0,82,0.00,,,0.00,WUHU216HW,2013-10-09 10:32:00,
2013-10-09 03:37:00,40.3,35.6,29.22,NW,315,0.0,2.0,83,0.00,,,0.00,WUHU216HW,2013-10-09 10:37:00,
2013-10-09 03:42:00,40.0,35.2,29.22,North,0,2.5,2.5,83,0.00,,,0.00,WUHU216HW,2013-10-09 10:42:00,
2013-10-09 03:47:00,40.3,35.6,29.22,NNE,23,4.5,4.5,83,0.00,,,0.00,WUHU216HW,2013-10-09 10:47:00,
2013-10-09 03:52:00,41.0,36.2,29.22,NE,45,0.0,4.5,83,0.00,,,0.00,WUHU216HW,2013-10-09 10:52:00,
2013-10-09 03:57:00,40.7,35.6,29.22,North,0,1.1,1.3,82,0.00,,,0.00,WUHU216HW,2013-10-09 10:57:00,
2013-10-09 04:02:00,40.3,35.8,29.22,North,0,1.8,1.8,84,0.00,,,0.00,WUHU216HW,2013-10-09 11:02:00,
2013-10-09 04:07:00,40.0,35.5,29.22,North,0,1.6,1.8,84,0.00,,,0.00,WUHU216HW,2013-10-09 11:07:00,